Terminal Aerodrome Forecast
Issued by NWS

Home | Current Version | Previous Version | Text Only | Print | Product List | Glossary On
Versions: 1 2 3 4 5 6 7 8 9 10 11 12 13
000
FTUS45 KVEF 271700
TAFDAG
TAF
KDAG 271720Z 2718/2818 VRB06KT P6SM SKC
     FM271900 05007KT P6SM SCT250
     FM280200 VRB05KT P6SM BKN250
     FM280600 28006KT P6SM BKN250=

USA.gov is the U.S. government's official web portal to all federal, state and local government web resources and services.